createdAt,value
2023-05-06T00:00:48.329Z,98681.09
2023-05-06T00:03:34.704Z,98696.88
2023-05-06T00:06:20.351Z,98632.09
2023-05-06T00:09:05.747Z,98522.03
2023-05-06T00:11:51.484Z,98712.94
2023-05-06T00:14:37.252Z,98704.03
2023-05-06T00:17:22.684Z,98709.03
2023-05-06T00:20:10.211Z,98708.53
2023-05-06T00:22:55.613Z,98574.34
2023-05-06T00:25:42.123Z,98515.97
2023-05-06T00:28:27.646Z,98518.16
2023-05-06T00:31:13.166Z,98579.59
2023-05-06T00:33:58.390Z,98520.09
2023-05-06T00:36:43.920Z,98663.13
2023-05-06T00:39:30.263Z,98702.28
2023-05-06T00:42:15.572Z,98694.94
2023-05-06T00:45:01.181Z,98543.78
2023-05-06T00:47:46.796Z,98510.53
2023-05-06T00:50:33.581Z,98692.94
2023-05-06T00:53:21.692Z,98707.31
2023-05-06T00:56:07.873Z,98686.41
2023-05-06T00:58:54.560Z,98532.66
2023-05-06T01:01:40.665Z,98483.75
2023-05-06T01:04:26.357Z,98511.72
2023-05-06T01:07:30.699Z,98736.13
2023-05-06T01:10:38.695Z,98706.53
2023-05-06T01:13:45.321Z,98727.44
2023-05-06T01:16:32.473Z,98525.63
2023-05-06T01:19:34.861Z,98539.19
2023-05-06T01:22:21.072Z,98702.78
2023-05-06T01:25:07.165Z,98719.72
2023-05-06T01:27:52.859Z,98704.59
2023-05-06T01:30:59.670Z,98511.00
2023-05-06T01:34:14.045Z,98672.66
2023-05-06T01:37:13.162Z,98666.19
2023-05-06T01:40:00.797Z,98515.06
2023-05-06T01:42:51.354Z,98554.94
2023-05-06T01:45:38.628Z,98713.09
2023-05-06T01:48:28.065Z,98603.31
2023-05-06T01:51:13.829Z,98516.13
2023-05-06T01:53:59.424Z,98687.06
2023-05-06T01:56:44.923Z,98709.31
2023-05-06T01:59:30.255Z,98612.19
2023-05-06T02:02:16.034Z,98710.88
2023-05-06T02:05:01.212Z,98701.00
2023-05-06T02:07:46.663Z,98702.78
2023-05-06T02:10:32.539Z,98547.84
2023-05-06T02:13:22.322Z,98536.09
2023-05-06T02:16:08.980Z,98506.69
2023-05-06T02:18:55.618Z,98731.91
2023-05-06T02:21:41.078Z,98706.78
2023-05-06T02:24:26.970Z,98614.06
2023-05-06T02:27:12.254Z,98720.31
2023-05-06T02:29:57.623Z,98710.97
2023-05-06T02:32:43.040Z,98527.03
2023-05-06T02:35:28.194Z,98670.88
2023-05-06T02:38:13.774Z,98518.38
2023-05-06T02:40:59.119Z,98664.56
2023-05-06T02:43:44.981Z,98650.34
2023-05-06T02:46:30.488Z,98717.69
2023-05-06T02:49:15.797Z,98612.00
2023-05-06T02:52:01.326Z,98544.56
2023-05-06T02:54:46.492Z,98452.44
2023-05-06T02:57:31.910Z,98682.94
2023-05-06T03:00:17.963Z,98648.97
2023-05-06T03:03:03.777Z,98723.53
2023-05-06T03:05:49.094Z,98727.06
2023-05-06T03:08:34.394Z,98735.56
2023-05-06T03:11:20.173Z,98547.44
2023-05-06T03:14:05.573Z,98683.63
2023-05-06T03:16:51.180Z,98674.09
2023-05-06T03:19:37.557Z,98727.28
2023-05-06T03:22:25.486Z,98570.22
2023-05-06T03:25:11.452Z,98529.34
2023-05-06T03:27:59.368Z,98533.91
2023-05-06T03:30:46.166Z,98731.47
2023-05-06T03:33:32.106Z,98548.00
2023-05-06T03:36:18.102Z,98688.69
2023-05-06T03:39:06.002Z,98742.31
2023-05-06T03:41:54.100Z,98691.38
2023-05-06T03:44:39.410Z,98570.09
2023-05-06T03:47:24.995Z,98742.16
2023-05-06T03:50:10.910Z,98769.19
2023-05-06T03:52:59.027Z,98577.69
2023-05-06T03:55:46.985Z,98548.06
2023-05-06T03:58:32.847Z,98684.91
2023-05-06T04:01:20.611Z,98716.00
2023-05-06T04:04:08.020Z,98720.94
2023-05-06T04:06:53.733Z,98731.84
2023-05-06T04:09:39.179Z,98597.06
2023-05-06T04:12:27.379Z,98692.16
2023-05-06T04:15:13.199Z,98691.41
2023-05-06T04:17:59.399Z,98547.97
2023-05-06T04:20:48.598Z,98722.91
2023-05-06T04:23:34.230Z,98730.91
2023-05-06T04:26:20.081Z,98724.53
2023-05-06T04:29:05.874Z,98607.28
2023-05-06T04:31:57.058Z,98539.63
2023-05-06T04:34:43.904Z,98725.31
2023-05-06T04:37:33.421Z,98726.22
2023-05-06T04:40:28.510Z,98688.69
2023-05-06T04:43:14.501Z,98568.91
2023-05-06T04:46:00.025Z,98607.47
2023-05-06T04:48:49.208Z,98688.28
2023-05-06T04:51:36.108Z,98595.47
2023-05-06T04:54:22.014Z,98547.09
2023-05-06T04:57:07.106Z,98732.19
2023-05-06T04:59:54.611Z,98585.50
2023-05-06T05:02:40.533Z,98577.41
2023-05-06T05:05:27.931Z,98736.72
2023-05-06T05:08:14.859Z,98721.78
2023-05-06T05:11:00.462Z,98669.59
2023-05-06T05:13:47.936Z,98674.53
2023-05-06T05:16:33.942Z,98717.03
2023-05-06T05:19:21.751Z,98687.09
2023-05-06T05:22:07.649Z,98711.53
2023-05-06T05:24:52.984Z,98705.03
2023-05-06T05:27:38.465Z,98751.50
2023-05-06T05:30:23.744Z,98733.84
2023-05-06T05:33:10.024Z,98702.84
2023-05-06T05:35:58.236Z,98625.94
2023-05-06T05:38:44.664Z,98728.69
2023-05-06T05:41:29.977Z,98666.19
2023-05-06T05:44:15.811Z,98684.31
2023-05-06T05:47:02.795Z,98694.75
2023-05-06T05:49:48.970Z,98537.22
2023-05-06T05:52:35.295Z,98587.25
2023-05-06T05:55:21.644Z,98630.75
2023-05-06T05:58:10.665Z,98573.66
2023-05-06T06:00:56.998Z,98560.88
2023-05-06T06:03:44.113Z,98731.22
2023-05-06T06:06:30.468Z,98740.31
2023-05-06T06:09:16.904Z,98741.75
2023-05-06T06:12:03.313Z,98599.31
2023-05-06T06:14:50.835Z,98689.50
2023-05-06T06:17:41.317Z,98731.84
2023-05-06T06:20:26.840Z,98557.53
2023-05-06T06:23:12.619Z,98715.81
2023-05-06T06:25:58.773Z,98706.09
2023-05-06T06:28:44.980Z,98678.81
2023-05-06T06:31:30.845Z,98682.88
2023-05-06T06:34:16.393Z,98521.41
2023-05-06T06:37:02.326Z,98727.72
2023-05-06T06:39:49.070Z,98725.72
2023-05-06T06:42:34.618Z,98577.78
2023-05-06T06:45:37.593Z,98732.06
2023-05-06T06:48:24.134Z,98736.56
2023-05-06T06:51:11.668Z,98727.69
2023-05-06T06:53:57.775Z,98594.09
2023-05-06T06:56:44.894Z,98742.44
2023-05-06T06:59:31.308Z,98752.31
2023-05-06T07:02:17.391Z,98337.66
2023-05-06T07:05:04.774Z,98743.44
2023-05-06T07:07:51.203Z,98590.59
2023-05-06T07:10:37.283Z,98570.63
2023-05-06T07:13:23.456Z,98580.88
2023-05-06T07:16:09.135Z,98752.88
2023-05-06T07:18:54.464Z,98551.97
2023-05-06T07:21:39.818Z,98739.88
2023-05-06T07:24:25.487Z,98707.59
2023-05-06T07:27:10.867Z,98697.84
2023-05-06T07:29:56.462Z,98693.72
2023-05-06T07:32:42.465Z,98601.41
2023-05-06T07:35:28.152Z,98744.13
2023-05-06T07:38:13.666Z,98617.72
2023-05-06T07:40:59.082Z,98650.59
2023-05-06T07:43:44.718Z,98730.75
2023-05-06T07:46:30.502Z,98602.41
2023-05-06T07:49:16.174Z,98745.47
2023-05-06T07:52:02.034Z,98752.88
2023-05-06T07:54:47.626Z,98738.03
2023-05-06T07:57:32.996Z,98641.81
2023-05-06T08:00:18.433Z,98722.44
2023-05-06T08:03:04.304Z,98713.22
2023-05-06T08:05:51.281Z,98683.63
2023-05-06T08:08:36.877Z,98730.00
2023-05-06T08:11:22.369Z,98729.03
2023-05-06T08:14:07.990Z,98738.97
2023-05-06T08:16:54.200Z,98735.06
2023-05-06T08:19:39.830Z,98651.97
2023-05-06T08:22:25.378Z,98575.66
2023-05-06T08:25:11.004Z,98739.94
2023-05-06T08:27:57.009Z,98566.19
2023-05-06T08:30:42.435Z,98607.19
2023-05-06T08:33:27.908Z,98578.09
2023-05-06T08:36:14.152Z,98555.97
2023-05-06T08:38:59.578Z,98613.91
2023-05-06T08:41:50.219Z,98596.59
2023-05-06T08:44:36.482Z,98737.50
2023-05-06T08:47:22.371Z,98594.03
2023-05-06T08:50:08.997Z,98632.97
2023-05-06T08:52:55.542Z,98662.16
2023-05-06T08:55:42.638Z,98717.22
2023-05-06T08:58:28.436Z,98727.97
2023-05-06T09:01:15.236Z,98562.06
2023-05-06T09:04:04.417Z,98722.47
2023-05-06T09:06:50.954Z,98569.22
2023-05-06T09:09:36.698Z,98716.53
2023-05-06T09:12:24.405Z,98645.75
2023-05-06T09:15:10.762Z,98622.38
2023-05-06T09:17:56.459Z,98556.47
2023-05-06T09:20:44.271Z,98715.41
2023-05-06T09:23:29.971Z,98717.00
2023-05-06T09:26:15.965Z,98569.09
2023-05-06T09:29:02.469Z,98717.22
2023-05-06T09:31:48.365Z,98531.63
2023-05-06T09:34:34.418Z,98526.25
2023-05-06T09:37:21.026Z,98514.84
2023-05-06T09:40:07.410Z,98534.47
2023-05-06T09:42:53.368Z,98659.69
2023-05-06T09:45:38.957Z,98554.38
2023-05-06T09:48:29.828Z,98580.47
2023-05-06T09:51:16.086Z,98603.78
2023-05-06T09:54:02.698Z,98522.41
2023-05-06T09:56:49.891Z,98685.13
2023-05-06T09:59:36.659Z,98528.47
2023-05-06T10:02:23.849Z,98577.13
2023-05-06T10:05:12.910Z,98589.31
2023-05-06T10:07:59.560Z,98502.13
2023-05-06T10:10:47.534Z,98534.53
2023-05-06T10:13:33.027Z,98663.44
2023-05-06T10:16:19.758Z,98651.78
2023-05-06T10:19:06.699Z,98656.97
2023-05-06T10:22:01.748Z,98556.94
2023-05-06T10:25:19.248Z,98647.44
2023-05-06T10:28:27.026Z,98491.69
2023-05-06T10:31:16.593Z,98614.78
2023-05-06T10:34:05.214Z,98606.47
2023-05-06T10:36:53.954Z,98634.59
2023-05-06T10:39:42.093Z,98520.13
2023-05-06T10:42:28.571Z,98467.31
2023-05-06T10:45:16.677Z,98645.44
2023-05-06T10:48:02.268Z,98637.09
2023-05-06T10:50:47.668Z,98554.91
2023-05-06T10:54:05.617Z,98637.50
2023-05-06T10:56:51.295Z,98648.56
2023-05-06T10:59:36.721Z,98607.16
2023-05-06T11:02:24.061Z,98616.09
2023-05-06T11:05:11.097Z,98446.97
2023-05-06T11:08:10.730Z,98574.91
2023-05-06T11:10:56.453Z,98358.47
2023-05-06T11:13:42.262Z,98504.69
2023-05-06T11:16:47.489Z,98603.00
2023-05-06T11:19:34.774Z,98558.00
2023-05-06T11:22:39.245Z,98431.63
2023-05-06T11:25:40.693Z,98594.38
2023-05-06T11:28:29.022Z,98589.38
2023-05-06T11:31:15.618Z,98440.16
2023-05-06T11:34:04.340Z,98432.69
2023-05-06T11:36:59.550Z,98538.59
2023-05-06T11:39:49.957Z,98544.72
2023-05-06T11:42:36.326Z,98579.00
2023-05-06T11:45:21.853Z,98569.78
2023-05-06T11:48:07.245Z,98428.00
2023-05-06T11:50:52.600Z,98608.81
2023-05-06T11:53:38.197Z,98569.47
2023-05-06T11:56:25.095Z,98610.13
2023-05-06T11:59:10.692Z,98541.16
2023-05-06T12:02:01.789Z,98568.81
2023-05-06T12:04:50.096Z,98524.25
2023-05-06T12:07:36.706Z,98432.25
2023-05-06T12:10:22.429Z,98552.06
2023-05-06T12:13:09.428Z,98388.00
2023-05-06T12:15:56.162Z,98473.72
2023-05-06T12:18:41.985Z,98535.47
2023-05-06T12:21:28.468Z,98541.50
2023-05-06T12:24:14.465Z,98495.88
2023-05-06T12:27:01.490Z,98369.22
2023-05-06T12:29:53.850Z,98531.56
2023-05-06T12:33:02.672Z,98524.38
2023-05-06T12:35:49.220Z,98486.31
2023-05-06T12:38:35.128Z,98359.53
2023-05-06T12:41:21.700Z,98404.56
2023-05-06T12:44:31.501Z,98508.13
2023-05-06T12:47:26.665Z,98430.06
2023-05-06T12:50:13.087Z,98489.63
2023-05-06T12:52:59.294Z,98417.84
2023-05-06T12:55:46.257Z,98475.72
2023-05-06T12:58:37.393Z,98349.66
2023-05-06T13:01:23.060Z,98434.38
2023-05-06T13:04:09.639Z,98482.84
2023-05-06T13:06:55.882Z,98342.28
2023-05-06T13:09:41.651Z,98284.91
2023-05-06T13:12:27.022Z,98319.22
2023-05-06T13:15:25.742Z,98426.59
2023-05-06T13:18:13.867Z,98433.44
2023-05-06T13:21:00.593Z,98419.69
2023-05-06T13:23:47.794Z,98352.19
2023-05-06T13:26:39.921Z,98468.69
2023-05-06T13:29:26.455Z,98325.78
2023-05-06T13:32:12.351Z,98359.88
2023-05-06T13:34:57.888Z,98446.84
2023-05-06T13:37:43.465Z,98306.69
2023-05-06T13:40:29.282Z,98291.09
2023-05-06T13:43:15.695Z,98286.84
2023-05-06T13:46:01.124Z,98443.97
2023-05-06T13:48:46.416Z,98452.31
2023-05-06T13:51:33.620Z,98453.44
2023-05-06T13:54:19.252Z,98388.00
2023-05-06T13:57:05.010Z,98395.09
2023-05-06T13:59:50.961Z,98325.16
2023-05-06T14:02:37.427Z,98429.56
2023-05-06T14:05:23.183Z,98382.34
2023-05-06T14:08:08.891Z,98412.22
2023-05-06T14:10:54.627Z,98260.88
2023-05-06T14:13:40.848Z,98387.25
2023-05-06T14:16:27.013Z,98339.63
2023-05-06T14:19:13.508Z,98294.72
2023-05-06T14:21:59.068Z,98416.78
2023-05-06T14:24:45.308Z,98349.44
2023-05-06T14:27:31.153Z,98279.91
2023-05-06T14:30:16.665Z,98435.56
2023-05-06T14:33:02.058Z,98257.81
2023-05-06T14:35:48.434Z,98259.38
2023-05-06T14:38:35.530Z,98395.63
2023-05-06T14:41:21.509Z,98415.38
2023-05-06T14:44:06.985Z,98384.22
2023-05-06T14:46:52.536Z,98310.31
2023-05-06T14:49:38.592Z,98391.28
2023-05-06T14:52:24.440Z,98359.97
2023-05-06T14:55:11.318Z,98370.41
2023-05-06T14:57:57.284Z,98217.34
2023-05-06T15:00:42.989Z,98233.44
2023-05-06T15:03:28.418Z,98390.16
2023-05-06T15:06:13.621Z,98376.94
2023-05-06T15:08:59.621Z,98376.94
2023-05-06T15:11:45.134Z,98185.19
2023-05-06T15:14:30.580Z,98214.13
2023-05-06T15:17:16.081Z,98232.06
2023-05-06T15:20:01.527Z,98336.06
2023-05-06T15:22:46.892Z,98355.03
2023-05-06T15:25:36.262Z,98198.47
2023-05-06T15:28:24.425Z,98356.13
2023-05-06T15:31:10.444Z,98344.59
2023-05-06T15:33:56.518Z,98343.13
2023-05-06T15:36:44.436Z,98182.06
2023-05-06T15:39:37.661Z,98330.59
2023-05-06T15:42:23.491Z,98186.75
2023-05-06T15:45:09.505Z,98238.19
2023-05-06T15:47:56.408Z,98337.72
2023-05-06T15:50:42.638Z,98199.19
2023-05-06T15:53:28.988Z,98296.84
2023-05-06T15:56:18.479Z,98175.53
2023-05-06T15:59:05.908Z,98328.06
2023-05-06T16:02:25.443Z,98195.16
2023-05-06T16:04:57.318Z,98172.72
2023-05-06T16:07:43.531Z,98219.94
2023-05-06T16:10:30.029Z,98332.47
2023-05-06T16:13:15.720Z,98319.91
2023-05-06T16:16:01.774Z,98295.69
2023-05-06T16:18:47.316Z,98331.84
2023-05-06T16:21:32.840Z,98331.72
2023-05-06T16:24:18.295Z,98199.09
2023-05-06T16:27:05.615Z,98311.59
2023-05-06T16:29:50.934Z,98325.94
2023-05-06T16:32:36.689Z,98165.84
2023-05-06T16:35:21.891Z,98183.28
2023-05-06T16:38:07.438Z,98344.50
2023-05-06T16:40:53.238Z,98163.38
2023-05-06T16:43:38.604Z,98291.03
2023-05-06T16:46:24.770Z,98223.03
2023-05-06T16:49:10.435Z,98296.00
2023-05-06T16:51:57.229Z,98292.88
2023-05-06T16:54:43.231Z,98179.09
2023-05-06T16:57:29.053Z,98178.66
2023-05-06T17:00:15.484Z,98289.78
2023-05-06T17:03:01.319Z,98252.19
2023-05-06T17:05:47.129Z,98300.25
2023-05-06T17:08:36.518Z,98277.19
2023-05-06T17:11:22.886Z,98301.88
2023-05-06T17:14:09.751Z,98289.66
2023-05-06T17:16:56.218Z,98137.31
2023-05-06T17:19:42.037Z,98127.84
2023-05-06T17:22:27.530Z,98147.25
2023-05-06T17:25:13.524Z,98235.31
2023-05-06T17:27:59.066Z,98292.63
2023-05-06T17:30:44.999Z,98254.59
2023-05-06T17:33:30.532Z,98288.06
2023-05-06T17:36:19.427Z,98268.34
2023-05-06T17:39:05.674Z,98233.22
2023-05-06T17:41:50.989Z,98268.13
2023-05-06T17:44:38.098Z,98124.72
2023-05-06T17:47:23.541Z,98214.09
2023-05-06T17:50:10.979Z,98280.56
2023-05-06T17:52:56.260Z,98113.34
2023-05-06T17:55:41.748Z,98274.66
2023-05-06T17:58:27.350Z,98258.88
2023-05-06T18:01:12.722Z,98131.44
2023-05-06T18:03:58.789Z,98095.66
2023-05-06T18:06:44.704Z,98099.59
2023-05-06T18:09:30.189Z,98260.88
2023-05-06T18:12:15.938Z,98207.69
2023-05-06T18:15:01.437Z,98131.16
2023-05-06T18:17:47.988Z,98104.25
2023-05-06T18:20:33.304Z,98109.38
2023-05-06T18:23:18.752Z,98291.06
2023-05-06T18:26:05.816Z,98252.38
2023-05-06T18:28:51.987Z,98279.69
2023-05-06T18:31:37.366Z,98261.00
2023-05-06T18:34:22.983Z,98275.31
2023-05-06T18:37:08.454Z,98198.94
2023-05-06T18:39:53.963Z,98243.63
2023-05-06T18:42:39.266Z,98285.34
2023-05-06T18:45:24.899Z,98174.84
2023-05-06T18:48:11.007Z,98275.41
2023-05-06T18:50:56.460Z,98107.06
2023-05-06T18:53:41.937Z,98121.13
2023-05-06T18:56:27.422Z,98226.16
2023-05-06T18:59:13.212Z,98128.84
2023-05-06T19:01:58.970Z,98280.53
2023-05-06T19:04:44.368Z,98182.47
2023-05-06T19:07:29.832Z,98072.13
2023-05-06T19:10:15.207Z,98224.09
2023-05-06T19:13:01.306Z,98248.94
2023-05-06T19:15:47.583Z,98115.06
2023-05-06T19:18:32.800Z,98077.69
2023-05-06T19:21:18.757Z,98062.91
2023-05-06T19:24:05.334Z,98141.38
2023-05-06T19:26:51.017Z,98228.59
2023-05-06T19:29:37.571Z,98138.69
2023-05-06T19:32:23.008Z,98129.13
2023-05-06T19:35:09.191Z,98041.06
2023-05-06T19:37:56.177Z,98175.69
2023-05-06T19:40:42.130Z,98212.81
2023-05-06T19:43:27.981Z,98219.63
2023-05-06T19:46:14.539Z,98105.34
2023-05-06T19:49:00.980Z,98211.50
2023-05-06T19:51:47.089Z,98218.41
2023-05-06T19:54:32.728Z,98028.66
2023-05-06T19:57:19.698Z,98158.00
2023-05-06T20:00:10.144Z,98208.72
2023-05-06T20:02:58.588Z,98201.41
2023-05-06T20:05:44.082Z,98129.44
2023-05-06T20:08:31.142Z,98186.88
2023-05-06T20:11:16.861Z,98091.22
2023-05-06T20:14:02.259Z,98209.19
2023-05-06T20:16:47.810Z,98226.28
2023-05-06T20:19:33.218Z,98149.19
2023-05-06T20:22:18.689Z,98217.19
2023-05-06T20:25:13.286Z,98029.25
2023-05-06T20:27:59.253Z,98096.84
2023-05-06T20:30:45.546Z,98022.38
2023-05-06T20:33:30.820Z,98075.31
2023-05-06T20:36:16.220Z,98204.25
2023-05-06T20:39:02.596Z,98126.25
2023-05-06T20:41:49.702Z,98201.06
2023-05-06T20:44:35.386Z,98047.69
2023-05-06T20:47:20.968Z,98061.31
2023-05-06T20:50:06.844Z,98037.03
2023-05-06T20:52:54.281Z,98222.91
2023-05-06T20:55:40.074Z,98234.19
2023-05-06T20:58:25.983Z,98255.69
2023-05-06T21:01:11.556Z,98048.06
2023-05-06T21:03:58.796Z,98204.63
2023-05-06T21:06:44.531Z,98252.91
2023-05-06T21:09:30.041Z,98166.91
2023-05-06T21:12:15.732Z,98291.38
2023-05-06T21:15:01.640Z,98349.84
2023-05-06T21:17:47.597Z,98158.59
2023-05-06T21:20:33.630Z,98321.69
2023-05-06T21:23:19.070Z,98297.31
2023-05-06T21:26:04.805Z,98378.41
2023-05-06T21:28:53.562Z,98160.50
2023-05-06T21:31:39.304Z,98109.25
2023-05-06T21:34:26.476Z,98315.66
2023-05-06T21:37:12.326Z,98302.25
2023-05-06T21:39:57.716Z,98190.81
2023-05-06T21:42:43.134Z,98313.81
2023-05-06T21:45:29.058Z,98292.97
2023-05-06T21:48:14.480Z,98232.34
2023-05-06T21:51:03.655Z,98283.75
2023-05-06T21:53:50.327Z,98131.47
2023-05-06T21:56:36.583Z,98251.63
2023-05-06T21:59:22.050Z,98164.00
2023-05-06T22:02:07.794Z,98110.44
2023-05-06T22:04:53.433Z,98282.50
2023-05-06T22:07:38.950Z,98074.25
2023-05-06T22:10:24.233Z,98242.34
2023-05-06T22:13:09.756Z,98079.25
2023-05-06T22:15:54.989Z,98206.50
2023-05-06T22:18:41.653Z,98195.41
2023-05-06T22:21:29.222Z,98174.19
2023-05-06T22:24:14.764Z,98265.72
2023-05-06T22:27:00.697Z,98175.09
2023-05-06T22:29:46.438Z,98258.88
2023-05-06T22:32:31.756Z,98251.13
2023-05-06T22:35:17.556Z,98242.19
2023-05-06T22:38:03.095Z,98250.25
2023-05-06T22:40:48.642Z,98264.00
2023-05-06T22:43:33.988Z,98237.94
2023-05-06T22:46:19.592Z,98236.47
2023-05-06T22:49:04.973Z,98202.75
2023-05-06T22:51:50.461Z,98045.81
2023-05-06T22:54:36.154Z,98203.03
2023-05-06T22:57:25.397Z,98051.19
2023-05-06T23:00:12.671Z,98214.72
2023-05-06T23:02:58.628Z,98201.56
2023-05-06T23:05:44.295Z,98215.00
2023-05-06T23:08:30.365Z,98233.00
2023-05-06T23:11:16.479Z,98059.06
2023-05-06T23:14:02.540Z,98052.94
2023-05-06T23:16:48.006Z,98238.81
2023-05-06T23:19:33.577Z,98161.34
2023-05-06T23:22:18.926Z,98097.50
2023-05-06T23:25:05.508Z,98054.84
2023-05-06T23:27:51.196Z,98049.31
2023-05-06T23:30:36.571Z,98090.03
2023-05-06T23:33:22.340Z,98236.19
2023-05-06T23:36:07.950Z,98099.25
2023-05-06T23:38:53.358Z,98261.66
2023-05-06T23:41:38.786Z,98246.72
2023-05-06T23:44:24.119Z,98243.22
2023-05-06T23:47:09.572Z,98229.50
2023-05-06T23:49:54.920Z,98226.53
2023-05-06T23:52:40.190Z,98254.19
2023-05-06T23:55:28.217Z,98222.47
2023-05-06T23:58:13.651Z,98262.53
